Forest Grove, OR

12:05 AM PDT on October 25, 2014 (GMT -0700)
Near Hwy 6 - 8 Junction | Change Station
CLOSE
Current Station
Personal Weather Station
Location: Gales Creek, OR
Elevation: 338 ft
Nearby Weather Stations

Elev 338 ft 45.61 °N, 123.23 °W | Updated 9 seconds ago

Partly Cloudy
Partly Cloudy
48.0 °F
Feels Like 48 °F
N
0.0
Wind Variable Wind from SSE
Gusts 7.0 mph

Today
High -- | Low -- °F
--% Chance of Precip.
Yesterday
High -- | Low -- °F
Precip. -- in
7:42 AM 6:10 PM
New Moon, 2% visible
Pressure 29.70 in
Visibility 10.0 miles
Clouds Clear
Windchill 48 °F
Dew Point 48 °F
Humidity 98%
Rainfall 0.00 in
Snow Depth Not available.
UV 0 out of 12
Pollen .40 out of 12
Ozone Good
PM2.5 Good
Flu Activity Sporadic
METAR KHIO 250553Z AUTO 30003KT 10SM CLR 10/09 A2970 RMK AO2 SLP057 60007 T01000094 10122 20094 58022 TSNO

More Conditions Fewer Conditions

Pressure 29.70 in
Visibility 10.0 miles
Clouds Clear
Windchill 48 °F
Dew Point 48 °F
Humidity 98%
Rainfall 0.00 in
Snow Depth Not available.
UV 0 out of 12
Pollen .40 out of 12
Ozone Good
PM2.5 Good
Flu Activity Sporadic
METAR KHIO 250553Z AUTO 30003KT 10SM CLR 10/09 A2970 RMK AO2 SLP057 60007 T01000094 10122 20094 58022 TSNO

More Conditions Fewer Conditions

10-Day Weather Forecast

Almanac

Astronomy

Oct. 25, 2014 Rise Set
Actual Time 7:42 AM PDT 6:10 PM PDT
Civil Twilight 7:12 AM PDT 6:40 PM PDT
Nautical Twilight 6:37 AM PDT 7:15 PM PDT
Astronomical Twilight 6:03 AM PDT 7:49 PM PDT
Moon 9:31 AM PDT 7:32 PM PDT
Length of Visible Light 11h 28m
Length of Day
10h 27m
Tomorrow will be 2m 58s shorter.
New Moon, 2% of the Moon is Illuminated
Today
New Moon
Oct 30
First Quarter
Nov 6
Full
Nov 14
Last Quarter
Nov 22
New

Today's Extremes

State Highs State Lows

Community

WunderPhotos

Upload Photos

1,764,789 photos uploaded!

Nearby

Air Quality

  Air Quality AQ Index Pollutant
Yesterday Good
PM2.5
Yesterday Good
OZONE
Current Good
PM2.5
Current Good
OZONE
Friday Good
PM2.5
Saturday Good
PM2.5

Snow Depth

Station Depth Elevation
Seine Creek 0 in 2000 ft
North Fork 0 in 3120 ft
Peavine Ridge 0 in 3500 ft
Greenpoint 0 in 3200 ft
Red Hill 0 in 4400 ft

Earthquake Activity

City Distance Mag. Time & Date
No recent earthquake activity has been reported nearby.
Minimum magnitude displayed is 2.5.

Coastal Water Temperatures

Place Temperature
No Stations Reporting

Nearby Weather Stations